Sanford, MI

5:45 PM EST on February 10, 2016 (GMT -0500)
East shore of Sanford lake. | | Change Station
CLOSE
Current Station
Personal Weather Station
Location: Sanford, MI
Elevation: 639 ft
Nearby Weather Stations

Elev 639 ft 43.70 °N, 84.38 °W | Updated 8 seconds ago

Overcast
Overcast
16.7 °F
Feels Like 17 °F
N
0.0
Wind Variable Wind from West
Gusts 0.0 mph

Today
High -- | Low -- °F
--% Chance of Precip.
Yesterday
High -- | Low -- °F
Precip. -- in
Pressure 29.91 in
Visibility 10.0 miles
Clouds Scattered Clouds 4500 ft
Scattered Clouds 5000 ft
Windchill 17 °F
Dew Point 5 °F
Humidity 59%
Rainfall 0.00 in
Snow Depth Not available.
7:43 AM 6:00 PM
Waxing Crescent, 7% visible
METAR KIKW 102234Z AUTO 30009G16KT 10SM SCT045 SCT050 M09/M18 A2991 RMK AO2 T10931177
Pressure 29.91 in
Visibility 10.0 miles
Clouds Scattered Clouds 4500 ft
Scattered Clouds 5000 ft
Windchill 17 °F
Dew Point 5 °F
Humidity 59%
Rainfall 0.00 in
Snow Depth Not available.
7:43 AM 6:00 PM
Waxing Crescent, 7% visible
METAR KIKW 102234Z AUTO 30009G16KT 10SM SCT045 SCT050 M09/M18 A2991 RMK AO2 T10931177

10-Day Weather Forecast

Almanac

Astronomy

Feb. 10, 2016 Rise Set
Actual Time
Civil Twilight
Nautical Twilight
Astronomical Twilight
Moon
Length of Visible Light
Length of Day
Tomorrow will be .
, % of the Moon is Illuminated

Today's Extremes

State Highs State Lows

Community

WunderPhotos

Upload Photos

1,891,940 photos uploaded!

WunderBlog® & News

Nearby

Air Quality

  Air Quality AQ Index Pollutant
Not available.

Snow Depth

Station Depth Elevation

Earthquake Activity

City Distance Mag. Time & Date
Minimum magnitude displayed is 2.5.

Coastal Water Temperatures

Place Temperature

Stations

Nearby Weather Stations

Station Location Temp. Windchill Dew Point Humidity Wind Precip. Elev Updated Type
                   

Watches & Warnings

There are currently no watches in effect.